Mtwara Airport

Airport
ICAO code: 
HTMT
IATA Code: 
MYW
Summary
ICAO Region: 
AFI
Territory: 
Location: 
Mtwara, Mtwara Region
Serving: 
Mtwara
Elevation: 
371 ft
Coordinates: 
Aerial View: 
10° 20' 9.996" S, 40° 10' 54.984" E
Metar
Observation
HTMT 190600Z 27010KT 9999 SCT021 FEW022CB BKN080 26/24 Q1012 NOSIG
Station
Mtwara
Date/Time
2022-01-19 06:00:00
Wind direction
270°
Wind speed
10 kts
Lowest cloud amount
scattered clouds
Temperature
26°C
Dew point
24°C
Humidity
88%
QNH
1012 hPa
Weather condition
n/a

Mtwara Airport is an airport in southern Tanzania serving the town of Mtwara.

Climatology

Tropical Savanna climate (Köppen climate classification Aw)

Runways

Designator Length Width Surface Rops
8/26 1163 30 GRE No/No
1/19 2259 30 ASP No/No
Airport map: 
Aerial View: 

SKYbrary Partners:

Safety knowledge contributed by: